General Deheza, Argentina
Current Conditions -  °F | °C
As of 4:00 AM on Saturday 29 Nov 2014 (Local Time) from SAOC Reporting Station
Clear Clear  
Wind Chill: 72°   Ceiling: Unl
Heat Index: 72°   Visibility: 6mi
Dew Point: 57°   Wind: 24mph
Humidity: 60%   Direction: 360°N
Pressure: 29.59"   Gusts: NA
Location:  32.73°S, 63.77°W
Report Text: SAOC 290700Z 36021KT CAVOK 22/14 Q1002
Loading
Personal Weather Stations






























Interactive Weather Map New forecast layout! Learn more

10-Day Weather Forecast

Advertisements
Track Severe Weather on mobile